sensor_id;sensor_type;location;lat;lon;timestamp;P1;durP1;ratioP1;P2;durP2;ratioP2
49029;SDS011;43337;52.070;4.508;2024-01-30T00:01:34;15.77;;;7.72;;
49029;SDS011;43337;52.070;4.508;2024-01-30T00:03:59;18.63;;;8.23;;
49029;SDS011;43337;52.070;4.508;2024-01-30T00:06:25;18.90;;;7.97;;
49029;SDS011;43337;52.070;4.508;2024-01-30T00:08:53;18.85;;;7.97;;
49029;SDS011;43337;52.070;4.508;2024-01-30T00:11:22;16.17;;;8.10;;
49029;SDS011;43337;52.070;4.508;2024-01-30T00:13:50;16.70;;;8.38;;
49029;SDS011;43337;52.070;4.508;2024-01-30T00:16:20;16.80;;;7.47;;
49029;SDS011;43337;52.070;4.508;2024-01-30T00:18:46;17.02;;;7.78;;
49029;SDS011;43337;52.070;4.508;2024-01-30T00:21:12;15.23;;;7.63;;
49029;SDS011;43337;52.070;4.508;2024-01-30T00:23:38;16.60;;;7.30;;
49029;SDS011;43337;52.070;4.508;2024-01-30T00:26:03;17.77;;;7.63;;
49029;SDS011;43337;52.070;4.508;2024-01-30T00:28:30;14.85;;;7.53;;
49029;SDS011;43337;52.070;4.508;2024-01-30T00:30:57;17.33;;;7.97;;
49029;SDS011;43337;52.070;4.508;2024-01-30T00:33:23;16.33;;;6.93;;
49029;SDS011;43337;52.070;4.508;2024-01-30T00:35:49;14.60;;;6.82;;
49029;SDS011;43337;52.070;4.508;2024-01-30T00:38:15;13.10;;;6.50;;
49029;SDS011;43337;52.070;4.508;2024-01-30T00:40:41;13.35;;;7.53;;
49029;SDS011;43337;52.070;4.508;2024-01-30T00:43:07;13.82;;;7.25;;
49029;SDS011;43337;52.070;4.508;2024-01-30T00:45:32;15.02;;;6.85;;
49029;SDS011;43337;52.070;4.508;2024-01-30T00:47:59;13.07;;;7.15;;
49029;SDS011;43337;52.070;4.508;2024-01-30T00:50:24;13.20;;;6.68;;
49029;SDS011;43337;52.070;4.508;2024-01-30T00:52:49;15.27;;;6.57;;
49029;SDS011;43337;52.070;4.508;2024-01-30T00:55:15;12.57;;;6.57;;
49029;SDS011;43337;52.070;4.508;2024-01-30T00:57:40;12.85;;;7.20;;
49029;SDS011;43337;52.070;4.508;2024-01-30T01:00:06;11.85;;;7.03;;
49029;SDS011;43337;52.070;4.508;2024-01-30T01:02:34;14.07;;;6.80;;
49029;SDS011;43337;52.070;4.508;2024-01-30T01:05:01;13.55;;;6.53;;
49029;SDS011;43337;52.070;4.508;2024-01-30T01:07:27;15.60;;;6.63;;
49029;SDS011;43337;52.070;4.508;2024-01-30T01:09:55;14.18;;;7.45;;
49029;SDS011;43337;52.070;4.508;2024-01-30T01:12:20;14.90;;;6.20;;
49029;SDS011;43337;52.070;4.508;2024-01-30T01:14:45;14.38;;;6.63;;
49029;SDS011;43337;52.070;4.508;2024-01-30T01:17:11;16.38;;;7.40;;
49029;SDS011;43337;52.070;4.508;2024-01-30T01:19:37;14.98;;;6.85;;
49029;SDS011;43337;52.070;4.508;2024-01-30T01:22:02;13.93;;;6.68;;
49029;SDS011;43337;52.070;4.508;2024-01-30T01:24:28;14.45;;;6.85;;
49029;SDS011;43337;52.070;4.508;2024-01-30T01:26:54;14.60;;;7.22;;
49029;SDS011;43337;52.070;4.508;2024-01-30T01:29:21;17.08;;;7.38;;
49029;SDS011;43337;52.070;4.508;2024-01-30T01:31:53;13.48;;;6.18;;
49029;SDS011;43337;52.070;4.508;2024-01-30T01:34:20;14.63;;;7.38;;
49029;SDS011;43337;52.070;4.508;2024-01-30T01:36:46;14.02;;;6.85;;
49029;SDS011;43337;52.070;4.508;2024-01-30T01:39:13;15.02;;;6.60;;
49029;SDS011;43337;52.070;4.508;2024-01-30T01:41:41;16.48;;;7.07;;
49029;SDS011;43337;52.070;4.508;2024-01-30T01:44:09;14.02;;;6.45;;
49029;SDS011;43337;52.070;4.508;2024-01-30T01:49:17;13.70;;;7.43;;
49029;SDS011;43337;52.070;4.508;2024-01-30T01:51:56;15.15;;;7.55;;
49029;SDS011;43337;52.070;4.508;2024-01-30T01:54:23;18.30;;;8.02;;
49029;SDS011;43337;52.070;4.508;2024-01-30T01:56:52;10.95;;;6.15;;
49029;SDS011;43337;52.070;4.508;2024-01-30T01:59:24;15.25;;;6.28;;
49029;SDS011;43337;52.070;4.508;2024-01-30T02:01:51;13.90;;;6.05;;
49029;SDS011;43337;52.070;4.508;2024-01-30T02:04:21;15.07;;;6.95;;
49029;SDS011;43337;52.070;4.508;2024-01-30T02:06:46;14.48;;;6.82;;
49029;SDS011;43337;52.070;4.508;2024-01-30T02:09:12;11.95;;;6.70;;
49029;SDS011;43337;52.070;4.508;2024-01-30T02:11:37;16.98;;;7.18;;
49029;SDS011;43337;52.070;4.508;2024-01-30T02:14:03;11.68;;;6.57;;
49029;SDS011;43337;52.070;4.508;2024-01-30T02:16:31;15.18;;;7.30;;
49029;SDS011;43337;52.070;4.508;2024-01-30T02:18:56;21.80;;;7.65;;
49029;SDS011;43337;52.070;4.508;2024-01-30T02:21:23;11.90;;;6.07;;
49029;SDS011;43337;52.070;4.508;2024-01-30T02:23:49;11.55;;;6.50;;
49029;SDS011;43337;52.070;4.508;2024-01-30T02:26:15;14.05;;;6.57;;
49029;SDS011;43337;52.070;4.508;2024-01-30T02:28:41;17.42;;;7.03;;
49029;SDS011;43337;52.070;4.508;2024-01-30T02:31:06;12.43;;;6.32;;
49029;SDS011;43337;52.070;4.508;2024-01-30T02:33:33;12.38;;;6.60;;
49029;SDS011;43337;52.070;4.508;2024-01-30T02:35:58;16.30;;;6.85;;
49029;SDS011;43337;52.070;4.508;2024-01-30T02:38:24;15.57;;;6.80;;
49029;SDS011;43337;52.070;4.508;2024-01-30T02:40:51;15.70;;;6.40;;
49029;SDS011;43337;52.070;4.508;2024-01-30T02:43:17;11.25;;;6.20;;
49029;SDS011;43337;52.070;4.508;2024-01-30T02:45:42;13.95;;;6.35;;
49029;SDS011;43337;52.070;4.508;2024-01-30T02:48:07;14.60;;;6.18;;
49029;SDS011;43337;52.070;4.508;2024-01-30T02:50:34;11.65;;;5.78;;
49029;SDS011;43337;52.070;4.508;2024-01-30T02:52:59;12.40;;;6.35;;
49029;SDS011;43337;52.070;4.508;2024-01-30T02:55:25;14.77;;;6.07;;
49029;SDS011;43337;52.070;4.508;2024-01-30T02:57:50;12.07;;;6.28;;
49029;SDS011;43337;52.070;4.508;2024-01-30T03:00:16;12.98;;;5.88;;
49029;SDS011;43337;52.070;4.508;2024-01-30T03:02:48;10.43;;;5.88;;
49029;SDS011;43337;52.070;4.508;2024-01-30T03:05:13;12.20;;;5.90;;
49029;SDS011;43337;52.070;4.508;2024-01-30T03:07:41;11.65;;;5.55;;
49029;SDS011;43337;52.070;4.508;2024-01-30T03:10:06;12.65;;;6.03;;
49029;SDS011;43337;52.070;4.508;2024-01-30T03:12:32;12.32;;;6.20;;
49029;SDS011;43337;52.070;4.508;2024-01-30T03:14:57;13.13;;;6.30;;
49029;SDS011;43337;52.070;4.508;2024-01-30T03:17:23;12.70;;;6.95;;
49029;SDS011;43337;52.070;4.508;2024-01-30T03:19:49;12.73;;;6.55;;
49029;SDS011;43337;52.070;4.508;2024-01-30T03:22:15;13.05;;;6.28;;
49029;SDS011;43337;52.070;4.508;2024-01-30T03:24:40;14.98;;;6.85;;
49029;SDS011;43337;52.070;4.508;2024-01-30T03:27:05;14.07;;;6.47;;
49029;SDS011;43337;52.070;4.508;2024-01-30T03:29:31;16.05;;;7.32;;
49029;SDS011;43337;52.070;4.508;2024-01-30T03:31:56;13.02;;;6.90;;
49029;SDS011;43337;52.070;4.508;2024-01-30T03:34:24;12.20;;;5.85;;
49029;SDS011;43337;52.070;4.508;2024-01-30T03:36:50;12.23;;;6.38;;
49029;SDS011;43337;52.070;4.508;2024-01-30T03:39:15;13.00;;;6.22;;
49029;SDS011;43337;52.070;4.508;2024-01-30T03:41:43;13.90;;;6.35;;
49029;SDS011;43337;52.070;4.508;2024-01-30T03:44:11;12.45;;;5.75;;
49029;SDS011;43337;52.070;4.508;2024-01-30T03:46:36;13.55;;;6.90;;
49029;SDS011;43337;52.070;4.508;2024-01-30T03:49:03;13.18;;;6.40;;
49029;SDS011;43337;52.070;4.508;2024-01-30T03:51:28;14.27;;;6.50;;
49029;SDS011;43337;52.070;4.508;2024-01-30T03:53:54;12.77;;;6.05;;
49029;SDS011;43337;52.070;4.508;2024-01-30T03:56:20;13.07;;;6.57;;
49029;SDS011;43337;52.070;4.508;2024-01-30T03:58:45;13.32;;;6.68;;
49029;SDS011;43337;52.070;4.508;2024-01-30T04:01:13;15.85;;;6.93;;
49029;SDS011;43337;52.070;4.508;2024-01-30T04:03:39;11.55;;;6.43;;
49029;SDS011;43337;52.070;4.508;2024-01-30T04:06:05;17.23;;;7.13;;
49029;SDS011;43337;52.070;4.508;2024-01-30T04:08:31;13.70;;;6.82;;
49029;SDS011;43337;52.070;4.508;2024-01-30T04:10:57;12.45;;;5.55;;
49029;SDS011;43337;52.070;4.508;2024-01-30T04:13:23;19.05;;;7.15;;
49029;SDS011;43337;52.070;4.508;2024-01-30T04:15:48;9.15;;;5.45;;
49029;SDS011;43337;52.070;4.508;2024-01-30T04:18:15;12.50;;;6.40;;
49029;SDS011;43337;52.070;4.508;2024-01-30T04:20:40;14.98;;;6.90;;
49029;SDS011;43337;52.070;4.508;2024-01-30T04:23:06;11.10;;;5.65;;
49029;SDS011;43337;52.070;4.508;2024-01-30T04:25:32;13.20;;;6.18;;
49029;SDS011;43337;52.070;4.508;2024-01-30T04:27:57;12.18;;;6.57;;
49029;SDS011;43337;52.070;4.508;2024-01-30T04:30:23;14.10;;;6.65;;
49029;SDS011;43337;52.070;4.508;2024-01-30T04:32:48;12.30;;;6.53;;
49029;SDS011;43337;52.070;4.508;2024-01-30T04:35:15;13.82;;;5.93;;
49029;SDS011;43337;52.070;4.508;2024-01-30T04:37:40;11.48;;;6.43;;
49029;SDS011;43337;52.070;4.508;2024-01-30T04:40:06;14.27;;;6.70;;
49029;SDS011;43337;52.070;4.508;2024-01-30T04:42:31;12.18;;;6.00;;
49029;SDS011;43337;52.070;4.508;2024-01-30T04:44:57;14.05;;;6.82;;
49029;SDS011;43337;52.070;4.508;2024-01-30T04:47:22;13.35;;;6.53;;
49029;SDS011;43337;52.070;4.508;2024-01-30T04:49:48;12.95;;;6.28;;
49029;SDS011;43337;52.070;4.508;2024-01-30T04:52:13;11.85;;;6.18;;
49029;SDS011;43337;52.070;4.508;2024-01-30T04:54:38;15.50;;;6.57;;
49029;SDS011;43337;52.070;4.508;2024-01-30T04:57:04;14.45;;;6.45;;
49029;SDS011;43337;52.070;4.508;2024-01-30T04:59:34;13.15;;;6.15;;
49029;SDS011;43337;52.070;4.508;2024-01-30T05:01:59;10.63;;;5.95;;
49029;SDS011;43337;52.070;4.508;2024-01-30T05:04:24;11.70;;;6.18;;
49029;SDS011;43337;52.070;4.508;2024-01-30T05:06:50;13.10;;;5.95;;
49029;SDS011;43337;52.070;4.508;2024-01-30T05:09:15;12.80;;;6.38;;
49029;SDS011;43337;52.070;4.508;2024-01-30T05:11:41;10.70;;;6.10;;
49029;SDS011;43337;52.070;4.508;2024-01-30T05:14:06;13.73;;;6.57;;
49029;SDS011;43337;52.070;4.508;2024-01-30T05:16:32;13.35;;;6.68;;
49029;SDS011;43337;52.070;4.508;2024-01-30T05:18:58;14.35;;;5.80;;
49029;SDS011;43337;52.070;4.508;2024-01-30T05:21:23;15.95;;;6.93;;
49029;SDS011;43337;52.070;4.508;2024-01-30T05:23:49;12.55;;;6.15;;
49029;SDS011;43337;52.070;4.508;2024-01-30T05:26:14;12.25;;;6.47;;
49029;SDS011;43337;52.070;4.508;2024-01-30T05:28:40;14.02;;;6.15;;
49029;SDS011;43337;52.070;4.508;2024-01-30T05:31:05;15.02;;;6.15;;
49029;SDS011;43337;52.070;4.508;2024-01-30T05:33:30;14.05;;;6.00;;
49029;SDS011;43337;52.070;4.508;2024-01-30T05:35:56;13.43;;;6.07;;
49029;SDS011;43337;52.070;4.508;2024-01-30T05:38:21;11.80;;;5.80;;
49029;SDS011;43337;52.070;4.508;2024-01-30T05:40:46;15.23;;;6.50;;
49029;SDS011;43337;52.070;4.508;2024-01-30T05:43:12;13.95;;;6.63;;
49029;SDS011;43337;52.070;4.508;2024-01-30T05:45:37;13.68;;;7.10;;
49029;SDS011;43337;52.070;4.508;2024-01-30T05:48:03;14.93;;;7.90;;
49029;SDS011;43337;52.070;4.508;2024-01-30T05:50:29;15.13;;;6.63;;
49029;SDS011;43337;52.070;4.508;2024-01-30T05:52:57;11.88;;;5.97;;
49029;SDS011;43337;52.070;4.508;2024-01-30T05:55:22;15.25;;;6.32;;
49029;SDS011;43337;52.070;4.508;2024-01-30T05:57:47;14.10;;;6.93;;
49029;SDS011;43337;52.070;4.508;2024-01-30T06:00:13;12.48;;;6.43;;
49029;SDS011;43337;52.070;4.508;2024-01-30T06:02:38;13.27;;;6.45;;
49029;SDS011;43337;52.070;4.508;2024-01-30T06:05:04;15.20;;;6.15;;
49029;SDS011;43337;52.070;4.508;2024-01-30T06:07:29;14.15;;;7.18;;
49029;SDS011;43337;52.070;4.508;2024-01-30T06:09:55;14.43;;;6.10;;
49029;SDS011;43337;52.070;4.508;2024-01-30T06:12:20;11.82;;;5.80;;
49029;SDS011;43337;52.070;4.508;2024-01-30T06:14:45;13.63;;;6.07;;
49029;SDS011;43337;52.070;4.508;2024-01-30T06:17:11;13.45;;;5.80;;
49029;SDS011;43337;52.070;4.508;2024-01-30T06:19:37;11.45;;;6.50;;
49029;SDS011;43337;52.070;4.508;2024-01-30T06:22:04;11.77;;;5.90;;
49029;SDS011;43337;52.070;4.508;2024-01-30T06:24:29;13.45;;;7.20;;
49029;SDS011;43337;52.070;4.508;2024-01-30T06:26:55;12.77;;;6.45;;
49029;SDS011;43337;52.070;4.508;2024-01-30T06:29:21;16.38;;;6.28;;
49029;SDS011;43337;52.070;4.508;2024-01-30T06:31:46;17.80;;;6.32;;
49029;SDS011;43337;52.070;4.508;2024-01-30T06:34:12;14.98;;;6.32;;
49029;SDS011;43337;52.070;4.508;2024-01-30T06:36:38;15.02;;;6.20;;
49029;SDS011;43337;52.070;4.508;2024-01-30T06:39:06;13.00;;;5.68;;
49029;SDS011;43337;52.070;4.508;2024-01-30T06:41:35;15.27;;;5.95;;
49029;SDS011;43337;52.070;4.508;2024-01-30T06:44:02;14.88;;;6.00;;
49029;SDS011;43337;52.070;4.508;2024-01-30T06:46:31;10.90;;;5.88;;
49029;SDS011;43337;52.070;4.508;2024-01-30T06:49:00;14.82;;;6.20;;
49029;SDS011;43337;52.070;4.508;2024-01-30T06:51:26;13.88;;;6.47;;
49029;SDS011;43337;52.070;4.508;2024-01-30T06:53:58;14.55;;;6.82;;
49029;SDS011;43337;52.070;4.508;2024-01-30T06:56:26;20.90;;;8.45;;
49029;SDS011;43337;52.070;4.508;2024-01-30T06:58:51;13.43;;;6.03;;
49029;SDS011;43337;52.070;4.508;2024-01-30T07:01:17;11.45;;;5.97;;
49029;SDS011;43337;52.070;4.508;2024-01-30T07:03:46;14.15;;;6.30;;
49029;SDS011;43337;52.070;4.508;2024-01-30T07:06:16;12.45;;;5.88;;
49029;SDS011;43337;52.070;4.508;2024-01-30T07:08:44;11.25;;;5.93;;
49029;SDS011;43337;52.070;4.508;2024-01-30T07:11:18;16.90;;;6.88;;
49029;SDS011;43337;52.070;4.508;2024-01-30T07:13:52;12.63;;;6.25;;
49029;SDS011;43337;52.070;4.508;2024-01-30T07:16:31;14.80;;;5.55;;
49029;SDS011;43337;52.070;4.508;2024-01-30T07:18:56;15.40;;;6.70;;
49029;SDS011;43337;52.070;4.508;2024-01-30T07:21:22;12.07;;;6.07;;
49029;SDS011;43337;52.070;4.508;2024-01-30T07:23:53;17.08;;;6.68;;
49029;SDS011;43337;52.070;4.508;2024-01-30T07:26:21;12.85;;;6.18;;
49029;SDS011;43337;52.070;4.508;2024-01-30T07:28:46;13.95;;;6.18;;
49029;SDS011;43337;52.070;4.508;2024-01-30T07:31:13;17.52;;;6.90;;
49029;SDS011;43337;52.070;4.508;2024-01-30T07:33:45;16.50;;;6.87;;
49029;SDS011;43337;52.070;4.508;2024-01-30T07:36:14;11.05;;;5.82;;
49029;SDS011;43337;52.070;4.508;2024-01-30T07:38:45;15.02;;;6.70;;
49029;SDS011;43337;52.070;4.508;2024-01-30T07:41:11;17.10;;;6.65;;
49029;SDS011;43337;52.070;4.508;2024-01-30T07:43:37;14.25;;;6.80;;
49029;SDS011;43337;52.070;4.508;2024-01-30T07:46:04;13.57;;;6.50;;
49029;SDS011;43337;52.070;4.508;2024-01-30T07:48:40;16.42;;;6.40;;
49029;SDS011;43337;52.070;4.508;2024-01-30T07:51:11;14.90;;;6.55;;
49029;SDS011;43337;52.070;4.508;2024-01-30T07:53:37;16.67;;;6.07;;
49029;SDS011;43337;52.070;4.508;2024-01-30T07:56:05;18.42;;;7.10;;
49029;SDS011;43337;52.070;4.508;2024-01-30T07:58:31;14.93;;;6.28;;
49029;SDS011;43337;52.070;4.508;2024-01-30T08:01:08;12.90;;;6.65;;
49029;SDS011;43337;52.070;4.508;2024-01-30T08:03:37;13.02;;;6.00;;
49029;SDS011;43337;52.070;4.508;2024-01-30T08:06:04;19.40;;;6.40;;
49029;SDS011;43337;52.070;4.508;2024-01-30T08:08:32;12.60;;;6.35;;
49029;SDS011;43337;52.070;4.508;2024-01-30T08:10:58;13.98;;;6.75;;
49029;SDS011;43337;52.070;4.508;2024-01-30T08:13:26;15.68;;;6.20;;
49029;SDS011;43337;52.070;4.508;2024-01-30T08:15:58;21.02;;;6.78;;
49029;SDS011;43337;52.070;4.508;2024-01-30T08:18:23;14.25;;;7.07;;
49029;SDS011;43337;52.070;4.508;2024-01-30T08:20:54;17.05;;;7.20;;
49029;SDS011;43337;52.070;4.508;2024-01-30T08:23:27;18.85;;;7.63;;
49029;SDS011;43337;52.070;4.508;2024-01-30T08:25:52;14.13;;;5.95;;
49029;SDS011;43337;52.070;4.508;2024-01-30T08:28:35;16.40;;;7.22;;
49029;SDS011;43337;52.070;4.508;2024-01-30T08:31:00;14.40;;;6.50;;
49029;SDS011;43337;52.070;4.508;2024-01-30T08:33:27;15.73;;;6.75;;
49029;SDS011;43337;52.070;4.508;2024-01-30T08:35:56;15.43;;;7.40;;
49029;SDS011;43337;52.070;4.508;2024-01-30T08:38:21;19.23;;;7.38;;
49029;SDS011;43337;52.070;4.508;2024-01-30T08:40:46;20.70;;;8.25;;
49029;SDS011;43337;52.070;4.508;2024-01-30T08:43:12;14.20;;;6.55;;
49029;SDS011;43337;52.070;4.508;2024-01-30T08:45:37;19.90;;;7.13;;
49029;SDS011;43337;52.070;4.508;2024-01-30T08:48:03;17.73;;;7.40;;
49029;SDS011;43337;52.070;4.508;2024-01-30T08:50:28;20.88;;;7.57;;
49029;SDS011;43337;52.070;4.508;2024-01-30T08:52:54;16.55;;;7.60;;
49029;SDS011;43337;52.070;4.508;2024-01-30T08:55:20;18.70;;;7.50;;
49029;SDS011;43337;52.070;4.508;2024-01-30T08:57:45;13.52;;;6.43;;
49029;SDS011;43337;52.070;4.508;2024-01-30T09:00:15;16.95;;;6.85;;
49029;SDS011;43337;52.070;4.508;2024-01-30T09:02:45;13.18;;;6.57;;
49029;SDS011;43337;52.070;4.508;2024-01-30T09:05:12;17.20;;;7.47;;
49029;SDS011;43337;52.070;4.508;2024-01-30T09:07:40;16.77;;;6.68;;
49029;SDS011;43337;52.070;4.508;2024-01-30T09:10:05;16.88;;;7.43;;
49029;SDS011;43337;52.070;4.508;2024-01-30T09:12:31;16.27;;;6.88;;
49029;SDS011;43337;52.070;4.508;2024-01-30T09:14:58;14.60;;;6.03;;
49029;SDS011;43337;52.070;4.508;2024-01-30T09:17:30;11.77;;;5.85;;
49029;SDS011;43337;52.070;4.508;2024-01-30T09:19:58;11.20;;;5.53;;
49029;SDS011;43337;52.070;4.508;2024-01-30T09:22:28;13.10;;;5.68;;
49029;SDS011;43337;52.070;4.508;2024-01-30T09:24:58;13.48;;;5.20;;
49029;SDS011;43337;52.070;4.508;2024-01-30T09:27:26;11.18;;;5.30;;
49029;SDS011;43337;52.070;4.508;2024-01-30T09:29:52;9.15;;;4.82;;
49029;SDS011;43337;52.070;4.508;2024-01-30T09:32:20;12.93;;;5.35;;
49029;SDS011;43337;52.070;4.508;2024-01-30T09:34:46;11.45;;;5.28;;
49029;SDS011;43337;52.070;4.508;2024-01-30T09:37:11;16.25;;;6.80;;
49029;SDS011;43337;52.070;4.508;2024-01-30T09:39:40;11.43;;;4.97;;
49029;SDS011;43337;52.070;4.508;2024-01-30T09:45:01;17.67;;;6.18;;
49029;SDS011;43337;52.070;4.508;2024-01-30T09:47:31;10.20;;;3.88;;
49029;SDS011;43337;52.070;4.508;2024-01-30T09:49:57;10.07;;;2.88;;
49029;SDS011;43337;52.070;4.508;2024-01-30T09:52:24;13.05;;;2.28;;
49029;SDS011;43337;52.070;4.508;2024-01-30T09:54:50;9.65;;;2.13;;
49029;SDS011;43337;52.070;4.508;2024-01-30T09:57:18;7.40;;;2.10;;
49029;SDS011;43337;52.070;4.508;2024-01-30T09:59:46;8.43;;;2.20;;
49029;SDS011;43337;52.070;4.508;2024-01-30T10:02:12;9.82;;;2.10;;
49029;SDS011;43337;52.070;4.508;2024-01-30T10:04:40;8.50;;;2.30;;
49029;SDS011;43337;52.070;4.508;2024-01-30T10:07:08;7.15;;;1.90;;
49029;SDS011;43337;52.070;4.508;2024-01-30T10:09:36;8.30;;;3.00;;
49029;SDS011;43337;52.070;4.508;2024-01-30T10:12:08;5.47;;;1.70;;
49029;SDS011;43337;52.070;4.508;2024-01-30T10:14:37;11.85;;;2.63;;
49029;SDS011;43337;52.070;4.508;2024-01-30T10:17:03;6.05;;;1.48;;
49029;SDS011;43337;52.070;4.508;2024-01-30T10:19:30;6.75;;;1.00;;
49029;SDS011;43337;52.070;4.508;2024-01-30T10:21:56;6.57;;;1.48;;
49029;SDS011;43337;52.070;4.508;2024-01-30T10:24:27;8.50;;;1.30;;
49029;SDS011;43337;52.070;4.508;2024-01-30T10:26:54;5.10;;;1.00;;
49029;SDS011;43337;52.070;4.508;2024-01-30T10:29:21;4.88;;;1.50;;
49029;SDS011;43337;52.070;4.508;2024-01-30T10:32:00;5.57;;;1.40;;
49029;SDS011;43337;52.070;4.508;2024-01-30T10:34:34;4.75;;;1.13;;
49029;SDS011;43337;52.070;4.508;2024-01-30T10:37:07;7.82;;;1.10;;
49029;SDS011;43337;52.070;4.508;2024-01-30T10:39:40;7.63;;;1.92;;
49029;SDS011;43337;52.070;4.508;2024-01-30T10:42:06;5.68;;;0.95;;
49029;SDS011;43337;52.070;4.508;2024-01-30T10:45:21;5.88;;;1.35;;
49029;SDS011;43337;52.070;4.508;2024-01-30T10:47:42;4.20;;;1.23;;
49029;SDS011;43337;52.070;4.508;2024-01-30T10:50:09;3.17;;;0.88;;
49029;SDS011;43337;52.070;4.508;2024-01-30T10:52:37;3.67;;;0.90;;
49029;SDS011;43337;52.070;4.508;2024-01-30T10:55:05;5.35;;;0.73;;
49029;SDS011;43337;52.070;4.508;2024-01-30T10:57:36;4.10;;;1.08;;
49029;SDS011;43337;52.070;4.508;2024-01-30T11:00:07;2.67;;;0.77;;
49029;SDS011;43337;52.070;4.508;2024-01-30T11:02:41;7.32;;;0.90;;
49029;SDS011;43337;52.070;4.508;2024-01-30T11:05:09;5.72;;;0.70;;
49029;SDS011;43337;52.070;4.508;2024-01-30T11:07:35;8.60;;;0.90;;
49029;SDS011;43337;52.070;4.508;2024-01-30T11:10:03;7.00;;;0.98;;
49029;SDS011;43337;52.070;4.508;2024-01-30T11:12:30;8.65;;;1.10;;
49029;SDS011;43337;52.070;4.508;2024-01-30T11:15:16;8.20;;;1.17;;
49029;SDS011;43337;52.070;4.508;2024-01-30T11:20:20;8.83;;;1.63;;
49029;SDS011;43337;52.070;4.508;2024-01-30T11:22:58;4.82;;;1.10;;
49029;SDS011;43337;52.070;4.508;2024-01-30T11:25:24;6.40;;;0.95;;
49029;SDS011;43337;52.070;4.508;2024-01-30T11:27:51;9.23;;;1.20;;
49029;SDS011;43337;52.070;4.508;2024-01-30T11:30:28;8.73;;;2.03;;
49029;SDS011;43337;52.070;4.508;2024-01-30T11:33:05;5.10;;;0.98;;
49029;SDS011;43337;52.070;4.508;2024-01-30T11:35:43;9.40;;;1.15;;
49029;SDS011;43337;52.070;4.508;2024-01-30T11:38:13;6.53;;;1.95;;
49029;SDS011;43337;52.070;4.508;2024-01-30T11:40:42;7.97;;;1.50;;
49029;SDS011;43337;52.070;4.508;2024-01-30T11:43:09;10.85;;;1.25;;
49029;SDS011;43337;52.070;4.508;2024-01-30T11:45:37;7.97;;;1.50;;
49029;SDS011;43337;52.070;4.508;2024-01-30T11:48:04;6.97;;;1.35;;
49029;SDS011;43337;52.070;4.508;2024-01-30T11:50:38;10.00;;;1.13;;
49029;SDS011;43337;52.070;4.508;2024-01-30T11:53:04;10.85;;;2.35;;
49029;SDS011;43337;52.070;4.508;2024-01-30T11:55:33;6.75;;;1.30;;
49029;SDS011;43337;52.070;4.508;2024-01-30T11:58:01;6.25;;;1.83;;
49029;SDS011;43337;52.070;4.508;2024-01-30T12:00:27;6.55;;;1.88;;
49029;SDS011;43337;52.070;4.508;2024-01-30T12:03:17;8.10;;;1.20;;
49029;SDS011;43337;52.070;4.508;2024-01-30T12:05:43;7.22;;;1.25;;
49029;SDS011;43337;52.070;4.508;2024-01-30T12:08:14;5.93;;;1.60;;
49029;SDS011;43337;52.070;4.508;2024-01-30T12:10:40;10.13;;;1.30;;
49029;SDS011;43337;52.070;4.508;2024-01-30T12:13:05;11.18;;;1.63;;
49029;SDS011;43337;52.070;4.508;2024-01-30T12:15:30;11.60;;;1.25;;
49029;SDS011;43337;52.070;4.508;2024-01-30T12:18:06;7.22;;;1.77;;
49029;SDS011;43337;52.070;4.508;2024-01-30T12:20:32;13.57;;;1.45;;
49029;SDS011;43337;52.070;4.508;2024-01-30T12:22:58;15.38;;;3.05;;
49029;SDS011;43337;52.070;4.508;2024-01-30T12:25:25;5.15;;;1.30;;
49029;SDS011;43337;52.070;4.508;2024-01-30T12:27:51;8.30;;;1.77;;
49029;SDS011;43337;52.070;4.508;2024-01-30T12:30:16;8.18;;;1.67;;
49029;SDS011;43337;52.070;4.508;2024-01-30T12:32:44;10.20;;;2.15;;
49029;SDS011;43337;52.070;4.508;2024-01-30T12:35:11;10.25;;;1.83;;
49029;SDS011;43337;52.070;4.508;2024-01-30T12:37:38;7.05;;;2.05;;
49029;SDS011;43337;52.070;4.508;2024-01-30T12:40:09;8.05;;;1.67;;
49029;SDS011;43337;52.070;4.508;2024-01-30T12:42:36;10.98;;;2.67;;
49029;SDS011;43337;52.070;4.508;2024-01-30T12:45:02;15.60;;;2.45;;
49029;SDS011;43337;52.070;4.508;2024-01-30T12:47:29;8.02;;;1.77;;
49029;SDS011;43337;52.070;4.508;2024-01-30T12:49:56;6.32;;;1.48;;
49029;SDS011;43337;52.070;4.508;2024-01-30T12:52:24;5.20;;;1.83;;
49029;SDS011;43337;52.070;4.508;2024-01-30T12:54:50;8.82;;;1.95;;
49029;SDS011;43337;52.070;4.508;2024-01-30T12:57:27;6.97;;;2.42;;
49029;SDS011;43337;52.070;4.508;2024-01-30T12:59:55;6.72;;;1.90;;
49029;SDS011;43337;52.070;4.508;2024-01-30T13:02:23;6.80;;;2.15;;
49029;SDS011;43337;52.070;4.508;2024-01-30T13:04:49;8.02;;;1.83;;
49029;SDS011;43337;52.070;4.508;2024-01-30T13:07:21;10.35;;;2.50;;
49029;SDS011;43337;52.070;4.508;2024-01-30T13:09:46;11.65;;;2.10;;
49029;SDS011;43337;52.070;4.508;2024-01-30T13:12:12;8.23;;;2.28;;
49029;SDS011;43337;52.070;4.508;2024-01-30T13:14:38;7.50;;;1.50;;
49029;SDS011;43337;52.070;4.508;2024-01-30T13:17:07;4.80;;;1.60;;
49029;SDS011;43337;52.070;4.508;2024-01-30T13:19:37;5.93;;;1.70;;
49029;SDS011;43337;52.070;4.508;2024-01-30T13:22:05;6.05;;;2.15;;
49029;SDS011;43337;52.070;4.508;2024-01-30T13:24:30;3.75;;;1.20;;
49029;SDS011;43337;52.070;4.508;2024-01-30T13:26:59;8.00;;;1.80;;
49029;SDS011;43337;52.070;4.508;2024-01-30T13:29:30;7.93;;;1.98;;
49029;SDS011;43337;52.070;4.508;2024-01-30T13:31:58;6.97;;;2.22;;
49029;SDS011;43337;52.070;4.508;2024-01-30T13:34:25;8.30;;;2.35;;
49029;SDS011;43337;52.070;4.508;2024-01-30T13:36:51;11.77;;;2.85;;
49029;SDS011;43337;52.070;4.508;2024-01-30T13:39:17;10.82;;;3.25;;
49029;SDS011;43337;52.070;4.508;2024-01-30T13:41:44;9.05;;;2.92;;
49029;SDS011;43337;52.070;4.508;2024-01-30T13:44:10;9.55;;;2.80;;
49029;SDS011;43337;52.070;4.508;2024-01-30T13:46:36;8.40;;;2.90;;
49029;SDS011;43337;52.070;4.508;2024-01-30T13:49:01;11.00;;;3.70;;
49029;SDS011;43337;52.070;4.508;2024-01-30T13:51:27;7.70;;;3.90;;
49029;SDS011;43337;52.070;4.508;2024-01-30T13:53:52;13.63;;;4.78;;
49029;SDS011;43337;52.070;4.508;2024-01-30T13:56:19;19.27;;;5.15;;
49029;SDS011;43337;52.070;4.508;2024-01-30T13:58:49;13.43;;;4.82;;
49029;SDS011;43337;52.070;4.508;2024-01-30T14:01:15;14.45;;;6.13;;
49029;SDS011;43337;52.070;4.508;2024-01-30T14:03:42;10.52;;;5.20;;
49029;SDS011;43337;52.070;4.508;2024-01-30T14:06:08;14.10;;;5.25;;
49029;SDS011;43337;52.070;4.508;2024-01-30T14:08:33;11.63;;;5.40;;
49029;SDS011;43337;52.070;4.508;2024-01-30T14:10:58;11.55;;;4.68;;
49029;SDS011;43337;52.070;4.508;2024-01-30T14:13:24;10.15;;;5.00;;
49029;SDS011;43337;52.070;4.508;2024-01-30T14:15:50;10.25;;;4.45;;
49029;SDS011;43337;52.070;4.508;2024-01-30T14:18:18;10.30;;;4.50;;
49029;SDS011;43337;52.070;4.508;2024-01-30T14:20:44;8.80;;;3.85;;
49029;SDS011;43337;52.070;4.508;2024-01-30T14:23:11;6.53;;;4.05;;
49029;SDS011;43337;52.070;4.508;2024-01-30T14:25:36;11.32;;;3.45;;
49029;SDS011;43337;52.070;4.508;2024-01-30T14:28:05;5.93;;;3.13;;
49029;SDS011;43337;52.070;4.508;2024-01-30T14:30:33;10.82;;;3.10;;
49029;SDS011;43337;52.070;4.508;2024-01-30T14:33:07;8.25;;;2.83;;
49029;SDS011;43337;52.070;4.508;2024-01-30T14:35:32;8.38;;;2.80;;
49029;SDS011;43337;52.070;4.508;2024-01-30T14:38:02;7.15;;;2.72;;
49029;SDS011;43337;52.070;4.508;2024-01-30T14:40:29;5.47;;;2.72;;
49029;SDS011;43337;52.070;4.508;2024-01-30T14:42:56;5.15;;;2.65;;
49029;SDS011;43337;52.070;4.508;2024-01-30T14:45:21;9.63;;;3.22;;
49029;SDS011;43337;52.070;4.508;2024-01-30T14:47:47;8.40;;;3.40;;